createdAt,value
2022-12-08T00:01:15.406Z,33.28
2022-12-08T00:03:42.519Z,31.38
2022-12-08T00:06:21.390Z,29.95
2022-12-08T00:08:47.915Z,34.97
2022-12-08T00:11:15.084Z,29.88
2022-12-08T00:13:41.693Z,29.85
2022-12-08T00:16:08.419Z,32.58
2022-12-08T00:18:34.915Z,36.65
2022-12-08T00:21:01.262Z,28.55
2022-12-08T00:23:27.723Z,30.88
2022-12-08T00:25:54.083Z,32.22
2022-12-08T00:28:20.437Z,32.20
2022-12-08T00:30:46.753Z,34.80
2022-12-08T00:33:13.322Z,32.35
2022-12-08T00:35:43.029Z,37.03
2022-12-08T00:38:09.800Z,36.58
2022-12-08T00:40:36.154Z,31.63
2022-12-08T00:43:02.488Z,31.75
2022-12-08T00:45:28.912Z,32.63
2022-12-08T00:47:55.289Z,31.80
2022-12-08T00:50:21.661Z,35.78
2022-12-08T00:52:48.004Z,37.30
2022-12-08T00:55:14.362Z,28.27
2022-12-08T00:57:40.670Z,35.53
2022-12-08T01:00:07.689Z,34.88
2022-12-08T01:02:34.273Z,30.40
2022-12-08T01:05:00.611Z,32.70
2022-12-08T01:07:27.615Z,36.78
2022-12-08T01:09:53.979Z,34.67
2022-12-08T01:12:20.312Z,35.55
2022-12-08T01:14:46.648Z,35.25
2022-12-08T01:17:13.061Z,33.55
2022-12-08T01:19:39.437Z,35.00
2022-12-08T01:22:05.788Z,43.35
2022-12-08T01:24:32.201Z,37.72
2022-12-08T01:26:58.536Z,37.40
2022-12-08T01:29:26.152Z,39.97
2022-12-08T01:31:52.534Z,39.20
2022-12-08T01:34:19.037Z,41.85
2022-12-08T01:36:45.354Z,37.60
2022-12-08T01:39:16.548Z,40.38
2022-12-08T01:41:43.894Z,37.33
2022-12-08T01:44:10.183Z,37.47
2022-12-08T01:46:40.644Z,38.72
2022-12-08T01:49:15.785Z,42.70
2022-12-08T01:51:56.617Z,40.75
2022-12-08T01:54:26.417Z,35.95
2022-12-08T01:57:01.050Z,44.10
2022-12-08T01:59:30.113Z,41.80
2022-12-08T02:01:57.112Z,47.97
2022-12-08T02:04:23.482Z,42.15
2022-12-08T02:06:51.633Z,47.10
2022-12-08T02:09:19.073Z,40.53
2022-12-08T02:11:45.862Z,46.03
2022-12-08T02:14:13.606Z,44.55
2022-12-08T02:17:02.734Z,45.33
2022-12-08T02:19:42.529Z,39.20
2022-12-08T02:22:16.960Z,43.58
2022-12-08T02:25:03.361Z,47.03
2022-12-08T02:27:56.574Z,40.10
2022-12-08T02:30:36.160Z,40.35
2022-12-08T02:33:21.402Z,43.15
2022-12-08T02:39:10.171Z,41.53
2022-12-08T02:41:46.951Z,43.55
2022-12-08T02:44:32.905Z,38.25
2022-12-08T02:47:08.408Z,35.78
2022-12-08T02:49:35.654Z,33.15
2022-12-08T02:52:11.532Z,35.47
2022-12-08T02:54:41.812Z,32.95
2022-12-08T02:57:16.551Z,36.15
2022-12-08T02:59:45.671Z,33.15
2022-12-08T03:02:30.967Z,31.35
2022-12-08T03:05:13.642Z,31.75
2022-12-08T03:07:53.033Z,31.52
2022-12-08T03:10:27.699Z,31.02
2022-12-08T03:13:14.208Z,34.15
2022-12-08T03:15:43.125Z,30.95
2022-12-08T03:18:14.061Z,32.90
2022-12-08T03:20:41.485Z,31.90
2022-12-08T03:23:11.365Z,30.70
2022-12-08T03:25:43.570Z,31.15
2022-12-08T03:28:10.227Z,30.27
2022-12-08T03:30:40.346Z,26.08
2022-12-08T03:33:17.909Z,32.65
2022-12-08T03:35:46.122Z,33.08
2022-12-08T03:38:15.356Z,30.10
2022-12-08T03:40:42.839Z,28.08
2022-12-08T03:43:09.816Z,27.27
2022-12-08T03:45:36.556Z,25.60
2022-12-08T03:48:03.417Z,29.92
2022-12-08T03:50:29.779Z,24.33
2022-12-08T03:52:56.227Z,26.05
2022-12-08T03:55:22.575Z,28.20
2022-12-08T03:57:48.944Z,26.55
2022-12-08T04:00:15.986Z,26.23
2022-12-08T04:02:42.663Z,27.63
2022-12-08T04:05:09.949Z,27.33
2022-12-08T04:07:36.374Z,29.75
2022-12-08T04:10:04.193Z,26.80
2022-12-08T04:12:30.703Z,27.80
2022-12-08T04:14:57.079Z,29.92
2022-12-08T04:17:23.460Z,33.47
2022-12-08T04:19:49.845Z,28.80
2022-12-08T04:22:16.222Z,34.53
2022-12-08T04:24:42.623Z,30.40
2022-12-08T04:27:09.004Z,28.52
2022-12-08T04:29:35.398Z,34.63
2022-12-08T04:32:01.749Z,32.85
2022-12-08T04:34:28.190Z,31.63
2022-12-08T04:36:54.572Z,30.70
2022-12-08T04:39:20.974Z,27.75
2022-12-08T04:41:47.332Z,35.83
2022-12-08T04:44:13.713Z,25.80
2022-12-08T04:46:43.392Z,26.05
2022-12-08T04:49:10.336Z,30.63
2022-12-08T04:51:36.704Z,31.83
2022-12-08T04:54:03.255Z,28.13
2022-12-08T04:56:29.637Z,28.88
2022-12-08T04:58:56.023Z,31.52
2022-12-08T05:01:22.409Z,33.60
2022-12-08T05:03:48.815Z,34.72
2022-12-08T05:06:15.220Z,33.63
2022-12-08T05:08:43.156Z,34.88
2022-12-08T05:11:12.060Z,36.63
2022-12-08T05:13:38.548Z,41.22
2022-12-08T05:16:13.903Z,41.00
2022-12-08T05:18:41.710Z,41.22
2022-12-08T05:21:08.813Z,38.25
2022-12-08T05:23:35.600Z,41.55
2022-12-08T05:26:02.082Z,38.63
2022-12-08T05:28:44.321Z,44.70
2022-12-08T05:31:12.868Z,43.38
2022-12-08T05:33:39.811Z,44.10
2022-12-08T05:36:06.712Z,40.53
2022-12-08T05:38:33.100Z,37.00
2022-12-08T05:40:59.478Z,34.15
2022-12-08T05:43:26.724Z,36.50
2022-12-08T05:45:53.173Z,37.50
2022-12-08T05:48:19.662Z,38.10
2022-12-08T05:50:47.772Z,38.55
2022-12-08T05:53:14.996Z,38.17
2022-12-08T05:56:04.954Z,33.17
2022-12-08T05:58:31.300Z,37.15
2022-12-08T06:00:57.694Z,37.00
2022-12-08T06:03:24.099Z,32.55
2022-12-08T06:05:50.524Z,32.92
2022-12-08T06:08:17.314Z,32.60
2022-12-08T06:10:45.405Z,33.78
2022-12-08T06:16:41.265Z,29.85
2022-12-08T06:19:08.250Z,30.65
2022-12-08T06:21:34.654Z,28.17
2022-12-08T06:24:01.043Z,30.85
2022-12-08T06:26:27.697Z,34.78
2022-12-08T06:28:54.342Z,31.95
2022-12-08T06:31:26.318Z,30.88
2022-12-08T06:33:54.283Z,33.88
2022-12-08T06:36:23.705Z,32.70
2022-12-08T06:38:50.172Z,35.42
2022-12-08T06:41:17.011Z,36.60
2022-12-08T06:43:44.165Z,33.00
2022-12-08T06:46:13.945Z,35.20
2022-12-08T06:48:40.627Z,37.95
2022-12-08T06:51:08.093Z,38.28
2022-12-08T06:53:34.604Z,39.20
2022-12-08T06:56:00.971Z,38.03
2022-12-08T06:58:27.443Z,40.25
2022-12-08T07:00:53.907Z,40.33
2022-12-08T07:03:20.454Z,38.92
2022-12-08T07:05:46.820Z,41.10
2022-12-08T07:08:13.340Z,40.95
2022-12-08T07:10:39.791Z,42.13
2022-12-08T07:13:06.230Z,40.67
2022-12-08T07:15:32.680Z,40.70
2022-12-08T07:18:00.229Z,39.55
2022-12-08T07:20:27.210Z,43.80
2022-12-08T07:22:54.023Z,44.67
2022-12-08T07:25:21.078Z,38.95
2022-12-08T07:27:47.487Z,38.63
2022-12-08T07:30:14.149Z,41.67
2022-12-08T07:32:40.812Z,38.35
2022-12-08T07:35:08.396Z,37.33
2022-12-08T07:37:41.304Z,41.83
2022-12-08T07:40:09.328Z,37.58
2022-12-08T07:42:35.893Z,32.80
2022-12-08T07:45:02.369Z,29.13
2022-12-08T07:47:28.784Z,24.10
2022-12-08T07:49:55.155Z,29.98
2022-12-08T07:52:21.771Z,28.30
2022-12-08T07:54:48.141Z,28.13
2022-12-08T07:57:14.820Z,27.30
2022-12-08T07:59:41.197Z,25.27
2022-12-08T08:02:24.143Z,29.13
2022-12-08T08:04:51.907Z,32.53
2022-12-08T08:07:18.386Z,30.67
2022-12-08T08:09:44.758Z,26.95
2022-12-08T08:12:30.347Z,30.05
2022-12-08T08:14:57.496Z,31.50
2022-12-08T08:17:24.100Z,28.63
2022-12-08T08:19:50.598Z,29.67
2022-12-08T08:22:16.984Z,30.83
2022-12-08T08:24:45.170Z,30.80
2022-12-08T08:27:11.950Z,30.67
2022-12-08T08:29:38.351Z,30.92
2022-12-08T08:32:04.825Z,36.13
2022-12-08T08:34:31.253Z,33.58
2022-12-08T08:36:57.700Z,31.73
2022-12-08T08:39:24.111Z,30.40
2022-12-08T08:41:50.495Z,30.40
2022-12-08T08:44:16.926Z,28.77
2022-12-08T08:46:43.417Z,28.33
2022-12-08T08:49:09.906Z,29.08
2022-12-08T08:51:36.506Z,32.72
2022-12-08T08:54:03.015Z,31.30
2022-12-08T08:56:29.405Z,32.40
2022-12-08T08:58:55.892Z,30.30
2022-12-08T09:01:27.456Z,31.33
2022-12-08T09:03:55.367Z,30.27
2022-12-08T09:06:22.899Z,28.95
2022-12-08T09:08:49.886Z,27.27
2022-12-08T09:11:17.224Z,28.58
2022-12-08T09:13:43.705Z,28.35
2022-12-08T09:16:12.083Z,27.55
2022-12-08T09:18:38.611Z,24.00
2022-12-08T09:21:10.727Z,24.90
2022-12-08T09:23:37.086Z,25.20
2022-12-08T09:26:04.135Z,26.50
2022-12-08T09:28:31.338Z,26.17
2022-12-08T09:30:57.817Z,24.92
2022-12-08T09:33:24.378Z,22.00
2022-12-08T09:35:50.738Z,22.55
2022-12-08T09:38:17.190Z,19.58
2022-12-08T09:40:51.996Z,20.15
2022-12-08T09:46:09.353Z,18.75
2022-12-08T09:48:39.893Z,17.77
2022-12-08T09:51:08.317Z,17.88
2022-12-08T09:53:36.846Z,18.27
2022-12-08T09:56:08.925Z,17.15
2022-12-08T09:58:52.498Z,16.73
2022-12-08T10:01:21.184Z,16.27
2022-12-08T10:03:47.832Z,16.30
2022-12-08T10:06:38.679Z,14.95
2022-12-08T10:09:22.996Z,17.17
2022-12-08T10:12:13.795Z,14.93
2022-12-08T10:14:43.977Z,19.02
2022-12-08T10:17:29.709Z,15.32
2022-12-08T10:20:06.793Z,16.73
2022-12-08T10:22:37.579Z,17.52
2022-12-08T10:25:06.357Z,17.92
2022-12-08T10:27:36.675Z,15.70
2022-12-08T10:30:11.540Z,17.08
2022-12-08T10:35:16.657Z,17.88
2022-12-08T10:37:56.073Z,16.10
2022-12-08T10:40:23.033Z,16.83
2022-12-08T10:42:53.875Z,19.20
2022-12-08T10:45:30.292Z,17.65
2022-12-08T10:48:03.698Z,15.90
2022-12-08T10:50:41.162Z,13.57
2022-12-08T10:53:07.497Z,15.38
2022-12-08T10:55:45.740Z,16.25
2022-12-08T10:58:35.443Z,15.50
2022-12-08T11:01:07.032Z,17.25
2022-12-08T11:03:38.741Z,16.50
2022-12-08T11:06:21.826Z,17.00
2022-12-08T11:08:51.659Z,14.02
2022-12-08T11:11:20.300Z,13.18
2022-12-08T11:13:50.824Z,16.45
2022-12-08T11:16:18.275Z,12.38
2022-12-08T11:18:54.768Z,13.48
2022-12-08T11:21:34.257Z,12.13
2022-12-08T11:24:18.470Z,9.50
2022-12-08T11:27:04.769Z,10.48
2022-12-08T11:29:33.684Z,13.40
2022-12-08T11:32:02.134Z,11.75
2022-12-08T11:34:42.856Z,11.38
2022-12-08T11:37:17.404Z,11.02
2022-12-08T11:39:49.961Z,9.93
2022-12-08T11:42:20.340Z,9.13
2022-12-08T11:44:58.209Z,7.72
2022-12-08T11:47:28.572Z,7.82
2022-12-08T11:50:16.618Z,11.18
2022-12-08T11:52:49.638Z,16.65
2022-12-08T11:55:40.706Z,10.38
2022-12-08T11:58:17.988Z,10.02
2022-12-08T12:00:44.712Z,9.57
2022-12-08T12:03:20.260Z,9.40
2022-12-08T12:08:54.624Z,11.85
2022-12-08T12:11:39.758Z,11.30
2022-12-08T12:14:32.364Z,9.45
2022-12-08T12:17:07.424Z,10.05
2022-12-08T12:19:38.802Z,11.07
2022-12-08T12:22:17.640Z,10.48
2022-12-08T12:24:47.434Z,10.40
2022-12-08T12:27:13.760Z,9.20
2022-12-08T12:29:52.266Z,10.88
2022-12-08T12:32:23.111Z,10.05
2022-12-08T12:34:57.026Z,10.05
2022-12-08T12:37:35.010Z,9.83
2022-12-08T12:40:18.348Z,9.27
2022-12-08T12:42:48.646Z,10.55
2022-12-08T12:45:14.995Z,9.82
2022-12-08T12:47:52.388Z,13.50
2022-12-08T12:50:34.236Z,7.68
2022-12-08T12:53:06.895Z,9.23
2022-12-08T12:56:04.045Z,7.43
2022-12-08T12:58:30.437Z,7.28
2022-12-08T13:01:12.035Z,7.20
2022-12-08T13:03:42.790Z,7.43
2022-12-08T13:06:14.607Z,7.93
2022-12-08T13:08:51.141Z,8.75
2022-12-08T13:11:17.890Z,7.88
2022-12-08T13:13:57.559Z,8.93
2022-12-08T13:16:32.099Z,8.07
2022-12-08T13:19:00.741Z,8.20
2022-12-08T13:21:34.701Z,6.85
2022-12-08T13:24:10.119Z,9.10
2022-12-08T13:27:03.738Z,7.15
2022-12-08T13:29:35.344Z,9.20
2022-12-08T13:32:22.956Z,8.95
2022-12-08T13:34:57.594Z,8.32
2022-12-08T13:37:30.607Z,8.05
2022-12-08T13:40:20.617Z,7.72
2022-12-08T13:43:06.133Z,7.28
2022-12-08T13:46:20.218Z,6.88
2022-12-08T13:49:18.518Z,9.32
2022-12-08T13:57:26.336Z,7.78
2022-12-08T13:59:52.924Z,8.80
2022-12-08T14:02:25.384Z,7.50
2022-12-08T14:07:40.904Z,7.60
2022-12-08T14:10:10.329Z,7.68
2022-12-08T14:12:37.368Z,8.00
2022-12-08T14:15:06.570Z,9.35
2022-12-08T14:17:34.781Z,8.63
2022-12-08T14:20:22.317Z,8.27
2022-12-08T14:22:48.975Z,10.38
2022-12-08T14:25:16.803Z,10.77
2022-12-08T14:27:43.886Z,9.25
2022-12-08T14:30:13.457Z,12.02
2022-12-08T14:32:50.755Z,10.43
2022-12-08T14:35:30.626Z,10.65
2022-12-08T14:38:00.090Z,10.80
2022-12-08T14:40:29.585Z,13.18
2022-12-08T14:43:08.289Z,10.68
2022-12-08T14:46:00.195Z,10.90
2022-12-08T14:48:35.683Z,12.30
2022-12-08T14:51:20.466Z,11.63
2022-12-08T14:54:08.289Z,10.38
2022-12-08T14:56:46.968Z,12.02
2022-12-08T14:59:15.378Z,15.18
2022-12-08T15:01:43.823Z,14.18
2022-12-08T15:04:22.870Z,14.13
2022-12-08T15:07:06.447Z,16.58
2022-12-08T15:09:38.180Z,13.15
2022-12-08T15:12:24.710Z,15.68
2022-12-08T15:15:14.273Z,15.27
2022-12-08T15:17:43.700Z,12.50
2022-12-08T15:20:44.491Z,15.43
2022-12-08T15:23:39.017Z,23.23
2022-12-08T15:26:05.786Z,21.83
2022-12-08T15:28:32.327Z,18.13
2022-12-08T15:30:59.209Z,14.15
2022-12-08T15:33:26.353Z,18.05
2022-12-08T15:35:53.536Z,13.68
2022-12-08T15:38:26.753Z,12.43
2022-12-08T15:40:54.221Z,13.30
2022-12-08T15:43:21.933Z,12.77
2022-12-08T15:45:58.568Z,14.63
2022-12-08T15:48:29.696Z,13.43
2022-12-08T15:50:56.676Z,16.13
2022-12-08T15:53:23.551Z,15.00
2022-12-08T15:56:19.047Z,16.92
2022-12-08T15:58:55.109Z,41.50
2022-12-08T16:01:23.362Z,38.22
2022-12-08T16:09:30.668Z,20.77
2022-12-08T16:12:06.405Z,16.08
2022-12-08T16:15:39.788Z,16.67
2022-12-08T16:17:20.714Z,16.15
2022-12-08T16:19:47.013Z,18.58
2022-12-08T16:25:18.189Z,16.23
2022-12-08T16:28:08.394Z,19.17
2022-12-08T16:30:31.527Z,16.50
2022-12-08T16:32:57.970Z,16.05
2022-12-08T16:35:24.286Z,17.85
2022-12-08T16:37:51.008Z,21.45
2022-12-08T16:40:17.415Z,23.13
2022-12-08T16:42:43.975Z,19.45
2022-12-08T16:45:13.777Z,18.85
2022-12-08T16:48:06.370Z,22.20
2022-12-08T16:50:34.831Z,17.92
2022-12-08T16:53:06.699Z,21.88
2022-12-08T16:55:34.528Z,18.85
2022-12-08T16:58:01.306Z,18.98
2022-12-08T17:00:29.628Z,20.08
2022-12-08T17:02:56.364Z,19.30
2022-12-08T17:05:25.041Z,18.40
2022-12-08T17:07:53.098Z,20.02
2022-12-08T17:10:25.181Z,18.52
2022-12-08T17:12:52.171Z,18.98
2022-12-08T17:15:21.598Z,18.58
2022-12-08T17:17:48.507Z,18.65
2022-12-08T17:20:17.464Z,20.15
2022-12-08T17:22:44.232Z,19.60
2022-12-08T17:25:11.145Z,19.33
2022-12-08T17:27:38.941Z,23.15
2022-12-08T17:30:07.247Z,20.83
2022-12-08T17:32:33.887Z,21.92
2022-12-08T17:35:00.315Z,19.90
2022-12-08T17:37:26.690Z,22.67
2022-12-08T17:39:53.043Z,27.35
2022-12-08T17:42:19.417Z,24.23
2022-12-08T17:44:45.778Z,29.08
2022-12-08T17:47:12.167Z,28.98
2022-12-08T17:49:38.761Z,26.73
2022-12-08T17:52:05.666Z,23.52
2022-12-08T17:54:33.003Z,24.58
2022-12-08T17:57:00.149Z,24.65
2022-12-08T17:59:28.021Z,22.13
2022-12-08T18:01:56.894Z,24.15
2022-12-08T18:04:25.335Z,35.85
2022-12-08T18:06:52.902Z,31.52
2022-12-08T18:09:23.072Z,33.05
2022-12-08T18:11:49.466Z,28.02
2022-12-08T18:14:16.375Z,29.77
2022-12-08T18:16:47.383Z,25.23
2022-12-08T18:19:14.900Z,24.75
2022-12-08T18:21:42.245Z,26.27
2022-12-08T18:24:15.375Z,25.05
2022-12-08T18:26:41.833Z,26.70
2022-12-08T18:29:08.174Z,29.48
2022-12-08T18:31:34.547Z,29.33
2022-12-08T18:34:00.873Z,28.67
2022-12-08T18:36:27.238Z,26.02
2022-12-08T18:38:53.914Z,26.27
2022-12-08T18:41:23.467Z,29.20
2022-12-08T18:43:50.008Z,27.92
2022-12-08T18:46:16.473Z,25.50
2022-12-08T18:48:45.892Z,27.20
2022-12-08T18:51:18.268Z,28.75
2022-12-08T18:53:45.327Z,24.10
2022-12-08T18:56:25.776Z,27.70
2022-12-08T18:58:52.958Z,29.35
2022-12-08T19:01:19.494Z,24.77
2022-12-08T19:04:12.050Z,26.15
2022-12-08T19:06:32.707Z,32.22
2022-12-08T19:08:59.062Z,30.48
2022-12-08T19:11:27.866Z,34.80
2022-12-08T19:13:54.942Z,37.45
2022-12-08T19:16:22.442Z,39.83
2022-12-08T19:18:49.030Z,37.47
2022-12-08T19:21:15.465Z,33.72
2022-12-08T19:23:42.342Z,36.35
2022-12-08T19:26:08.830Z,34.97
2022-12-08T19:28:35.242Z,35.20
2022-12-08T19:31:09.737Z,32.38
2022-12-08T19:33:36.762Z,29.55
2022-12-08T19:36:07.934Z,34.53
2022-12-08T19:38:34.423Z,36.92
2022-12-08T19:41:01.264Z,29.20
2022-12-08T19:43:27.677Z,28.83
2022-12-08T19:45:54.613Z,33.35
2022-12-08T19:48:21.045Z,32.63
2022-12-08T19:50:47.485Z,30.38
2022-12-08T19:53:15.176Z,34.33
2022-12-08T19:55:43.308Z,34.05
2022-12-08T19:58:10.490Z,30.25
2022-12-08T20:00:38.623Z,33.10
2022-12-08T20:03:05.757Z,31.38
2022-12-08T20:05:33.682Z,35.75
2022-12-08T20:08:00.104Z,33.72
2022-12-08T20:10:29.620Z,30.90
2022-12-08T20:12:56.632Z,35.67
2022-12-08T20:15:23.064Z,31.73
2022-12-08T20:17:49.461Z,38.38
2022-12-08T20:20:16.104Z,34.53
2022-12-08T20:22:42.577Z,37.92
2022-12-08T20:25:12.715Z,36.80
2022-12-08T20:27:39.685Z,38.30
2022-12-08T20:30:09.469Z,37.10
2022-12-08T20:32:38.353Z,35.67
2022-12-08T20:35:05.277Z,40.47
2022-12-08T20:37:31.927Z,34.95
2022-12-08T20:39:58.380Z,38.67
2022-12-08T20:42:24.804Z,33.35
2022-12-08T20:44:51.147Z,32.60
2022-12-08T20:47:18.033Z,29.60
2022-12-08T20:49:44.754Z,27.38
2022-12-08T20:52:11.127Z,27.33
2022-12-08T20:54:37.652Z,27.77
2022-12-08T20:57:04.133Z,29.27
2022-12-08T20:59:30.522Z,28.58
2022-12-08T21:01:57.552Z,32.92
2022-12-08T21:04:24.173Z,29.25
2022-12-08T21:06:50.897Z,34.63
2022-12-08T21:09:17.678Z,35.88
2022-12-08T21:11:44.479Z,40.40
2022-12-08T21:14:11.116Z,45.92
2022-12-08T21:16:38.822Z,40.92
2022-12-08T21:19:06.237Z,41.22
2022-12-08T21:21:32.982Z,38.45
2022-12-08T21:23:59.413Z,44.50
2022-12-08T21:26:25.834Z,41.47
2022-12-08T21:28:53.422Z,44.42
2022-12-08T21:31:20.436Z,36.83
2022-12-08T21:33:47.906Z,35.65
2022-12-08T21:36:17.756Z,42.97
2022-12-08T21:38:44.630Z,46.80
2022-12-08T21:41:14.853Z,43.58
2022-12-08T21:43:42.462Z,52.40
2022-12-08T21:46:16.035Z,40.83
2022-12-08T21:48:42.707Z,45.38
2022-12-08T21:51:09.281Z,44.58
2022-12-08T21:53:35.801Z,46.03
2022-12-08T21:56:02.281Z,48.75
2022-12-08T21:58:28.906Z,51.20
2022-12-08T22:00:55.577Z,52.28
2022-12-08T22:03:22.117Z,55.13
2022-12-08T22:05:48.726Z,57.90
2022-12-08T22:08:15.342Z,61.47
2022-12-08T22:10:46.967Z,56.40
2022-12-08T22:13:13.565Z,57.00
2022-12-08T22:15:40.238Z,56.20
2022-12-08T22:18:06.948Z,57.75
2022-12-08T22:20:33.421Z,55.53
2022-12-08T22:23:00.152Z,50.33
2022-12-08T22:25:26.846Z,47.92
2022-12-08T22:27:53.563Z,49.30
2022-12-08T22:30:20.101Z,47.70
2022-12-08T22:32:46.721Z,47.40
2022-12-08T22:35:13.307Z,45.20
2022-12-08T22:37:39.866Z,45.67
2022-12-08T22:40:07.531Z,50.13
2022-12-08T22:42:34.306Z,53.70
2022-12-08T22:45:00.822Z,49.60
2022-12-08T22:47:27.436Z,57.17
2022-12-08T22:49:53.978Z,51.15
2022-12-08T22:52:20.502Z,54.88
2022-12-08T22:54:47.334Z,62.38
2022-12-08T22:57:13.739Z,59.20
2022-12-08T22:59:40.078Z,58.45
2022-12-08T23:02:07.861Z,54.55
2022-12-08T23:04:35.718Z,57.00
2022-12-08T23:07:02.781Z,62.33
2022-12-08T23:09:29.441Z,56.90
2022-12-08T23:11:55.879Z,58.88
2022-12-08T23:14:22.299Z,59.88
2022-12-08T23:16:48.799Z,61.25
2022-12-08T23:19:15.304Z,60.65
2022-12-08T23:21:41.749Z,62.70
2022-12-08T23:24:08.141Z,62.88
2022-12-08T23:26:34.564Z,72.65
2022-12-08T23:29:01.732Z,64.15
2022-12-08T23:31:28.550Z,61.58
2022-12-08T23:33:54.970Z,62.83
2022-12-08T23:36:23.490Z,70.00
2022-12-08T23:38:49.861Z,66.32
2022-12-08T23:41:16.575Z,72.30
2022-12-08T23:43:46.277Z,70.10
2022-12-08T23:46:14.398Z,67.50
2022-12-08T23:48:41.184Z,70.70
2022-12-08T23:51:08.318Z,71.05
2022-12-08T23:53:34.880Z,73.18
2022-12-08T23:56:13.292Z,80.90
2022-12-08T23:58:41.084Z,65.82
